createdAt,value
2023-09-25T00:02:09.158Z,4.50
2023-09-25T00:04:36.178Z,7.03
2023-09-25T00:07:04.918Z,3.47
2023-09-25T00:09:31.919Z,5.18
2023-09-25T00:11:58.913Z,8.77
2023-09-25T00:14:25.946Z,10.55
2023-09-25T00:16:52.936Z,10.02
2023-09-25T00:19:20.287Z,5.05
2023-09-25T00:21:47.231Z,6.82
2023-09-25T00:24:14.186Z,5.65
2023-09-25T00:26:41.118Z,7.75
2023-09-25T00:29:08.016Z,4.93
2023-09-25T00:31:34.966Z,3.70
2023-09-25T00:34:01.992Z,4.78
2023-09-25T00:39:07.735Z,3.65
2023-09-25T00:41:34.884Z,8.68
2023-09-25T00:44:02.098Z,7.93
2023-09-25T00:46:29.085Z,7.30
2023-09-25T00:48:56.579Z,8.95
2023-09-25T00:51:24.097Z,11.82
2023-09-25T00:53:51.074Z,9.60
2023-09-25T00:56:18.811Z,4.85
2023-09-25T00:58:46.630Z,21.77
2023-09-25T01:01:14.011Z,4.97
2023-09-25T01:03:41.599Z,9.40
2023-09-25T01:06:09.072Z,4.18
2023-09-25T01:08:37.270Z,6.65
2023-09-25T01:11:04.868Z,10.48
2023-09-25T01:13:32.129Z,4.50
2023-09-25T01:15:59.299Z,6.88
2023-09-25T01:18:26.219Z,4.63
2023-09-25T01:20:53.208Z,7.68
2023-09-25T01:23:20.202Z,6.45
2023-09-25T01:25:47.135Z,6.75
2023-09-25T01:28:14.959Z,4.55
2023-09-25T01:30:42.003Z,8.98
2023-09-25T01:33:09.220Z,6.88
2023-09-25T01:35:36.366Z,6.15
2023-09-25T01:38:06.369Z,7.82
2023-09-25T01:40:33.624Z,9.70
2023-09-25T01:43:00.984Z,5.15
2023-09-25T01:45:27.982Z,4.45
2023-09-25T01:47:55.183Z,7.85
2023-09-25T01:50:23.290Z,5.38
2023-09-25T01:52:55.618Z,10.02
2023-09-25T01:55:22.864Z,7.53
2023-09-25T01:57:49.866Z,7.05
2023-09-25T02:00:19.866Z,10.38
2023-09-25T02:02:48.168Z,4.85
2023-09-25T02:05:15.981Z,9.43
2023-09-25T02:07:43.262Z,9.25
2023-09-25T02:10:11.269Z,8.43
2023-09-25T02:15:09.893Z,15.73
2023-09-25T02:17:37.031Z,10.13
2023-09-25T02:20:18.748Z,8.68
2023-09-25T02:22:48.358Z,6.35
2023-09-25T02:25:15.874Z,6.68
2023-09-25T02:27:43.099Z,6.03
2023-09-25T02:30:11.903Z,7.45
2023-09-25T02:32:39.783Z,8.18
2023-09-25T02:35:08.631Z,6.05
2023-09-25T02:37:37.951Z,10.77
2023-09-25T02:40:07.168Z,11.55
2023-09-25T02:42:35.086Z,6.00
2023-09-25T02:45:02.399Z,6.70
2023-09-25T02:47:29.361Z,6.55
2023-09-25T02:49:56.425Z,7.20
2023-09-25T02:52:23.383Z,6.13
2023-09-25T02:54:50.276Z,9.15
2023-09-25T02:57:17.218Z,8.88
2023-09-25T02:59:44.174Z,7.57
2023-09-25T03:02:11.106Z,10.07
2023-09-25T03:04:38.700Z,5.00
2023-09-25T03:07:05.681Z,11.77
2023-09-25T03:09:32.680Z,6.45
2023-09-25T03:12:00.520Z,9.18
2023-09-25T03:14:27.513Z,4.45
2023-09-25T03:16:54.540Z,8.00
2023-09-25T03:19:21.452Z,4.35
2023-09-25T03:21:48.412Z,5.82
2023-09-25T03:24:15.839Z,9.88
2023-09-25T03:26:42.941Z,6.45
2023-09-25T03:29:09.886Z,5.55
2023-09-25T03:31:36.865Z,6.35
2023-09-25T03:34:03.848Z,4.95
2023-09-25T03:36:30.897Z,8.52
2023-09-25T03:38:57.885Z,8.55
2023-09-25T03:41:24.844Z,10.20
2023-09-25T03:43:51.762Z,9.00
2023-09-25T03:46:18.921Z,3.17
2023-09-25T03:48:47.363Z,6.63
2023-09-25T03:51:14.511Z,6.00
2023-09-25T03:53:41.461Z,7.03
2023-09-25T03:56:08.511Z,4.32
2023-09-25T03:58:35.468Z,4.35
2023-09-25T04:01:02.643Z,5.22
2023-09-25T04:03:32.169Z,7.57
2023-09-25T04:05:59.632Z,4.33
2023-09-25T04:08:26.583Z,6.03
2023-09-25T04:10:53.535Z,5.15
2023-09-25T04:13:23.743Z,3.92
2023-09-25T04:15:52.466Z,4.28
2023-09-25T04:18:20.344Z,15.00
2023-09-25T04:20:47.457Z,2.70
2023-09-25T04:23:15.072Z,4.25
2023-09-25T04:25:42.249Z,3.65
2023-09-25T04:28:09.210Z,9.95
2023-09-25T04:30:36.206Z,3.67
2023-09-25T04:33:03.318Z,8.07
2023-09-25T04:35:30.378Z,5.53
2023-09-25T04:37:57.294Z,4.15
2023-09-25T04:40:24.712Z,8.98
2023-09-25T04:42:53.297Z,9.68
2023-09-25T04:45:21.107Z,11.55
2023-09-25T04:47:56.257Z,9.73
2023-09-25T04:50:24.877Z,5.78
2023-09-25T04:52:52.046Z,9.75
2023-09-25T04:55:19.139Z,10.38
2023-09-25T04:57:47.469Z,10.07
2023-09-25T05:00:23.350Z,7.30
2023-09-25T05:02:51.302Z,9.68
2023-09-25T05:05:19.422Z,6.80
2023-09-25T05:07:49.051Z,11.73
2023-09-25T05:10:27.434Z,12.27
2023-09-25T05:12:55.915Z,12.20
2023-09-25T05:15:23.400Z,5.88
2023-09-25T05:17:50.595Z,6.43
2023-09-25T05:20:20.204Z,10.20
2023-09-25T05:22:54.973Z,6.82
2023-09-25T05:25:23.098Z,8.73
2023-09-25T05:27:52.354Z,10.15
2023-09-25T05:30:20.248Z,7.68
2023-09-25T05:32:49.765Z,9.13
2023-09-25T05:35:17.361Z,7.60
2023-09-25T05:37:49.690Z,9.10
2023-09-25T05:40:17.533Z,8.20
2023-09-25T05:42:46.330Z,8.05
2023-09-25T05:45:15.253Z,9.15
2023-09-25T05:47:42.938Z,10.77
2023-09-25T05:50:10.647Z,9.80
2023-09-25T05:52:39.476Z,8.18
2023-09-25T05:55:10.181Z,8.38
2023-09-25T05:57:37.535Z,8.02
2023-09-25T06:00:12.755Z,8.15
2023-09-25T06:02:44.015Z,10.20
2023-09-25T06:07:41.787Z,8.23
2023-09-25T06:10:09.610Z,13.40
2023-09-25T06:12:37.345Z,11.23
2023-09-25T06:15:11.186Z,9.90
2023-09-25T06:17:39.824Z,6.28
2023-09-25T06:20:17.234Z,4.07
2023-09-25T06:22:45.993Z,5.03
2023-09-25T06:25:14.932Z,6.65
2023-09-25T06:27:45.571Z,9.90
2023-09-25T06:30:17.580Z,6.50
2023-09-25T06:32:44.894Z,6.53
2023-09-25T06:35:11.904Z,5.78
2023-09-25T06:37:40.128Z,4.70
2023-09-25T06:40:10.780Z,6.38
2023-09-25T06:42:39.558Z,7.25
2023-09-25T06:45:07.222Z,7.55
2023-09-25T06:47:35.410Z,6.28
2023-09-25T06:50:03.194Z,4.70
2023-09-25T06:52:30.479Z,9.93
2023-09-25T06:54:57.681Z,9.73
2023-09-25T06:57:24.714Z,5.82
2023-09-25T06:59:51.695Z,8.60
2023-09-25T07:02:18.716Z,5.63
2023-09-25T07:04:47.996Z,5.10
2023-09-25T07:07:15.021Z,4.88
2023-09-25T07:09:42.694Z,7.43
2023-09-25T07:12:14.043Z,10.52
2023-09-25T07:14:41.144Z,6.03
2023-09-25T07:17:08.214Z,4.90
2023-09-25T07:19:35.241Z,6.03
2023-09-25T07:22:02.460Z,6.97
2023-09-25T07:24:29.478Z,4.60
2023-09-25T07:26:56.431Z,6.20
2023-09-25T07:29:40.603Z,5.20
2023-09-25T07:32:08.750Z,5.57
2023-09-25T07:34:35.808Z,6.65
2023-09-25T07:37:05.907Z,8.75
2023-09-25T07:39:36.252Z,5.88
2023-09-25T07:42:03.583Z,10.40
2023-09-25T07:44:34.702Z,9.63
2023-09-25T07:47:07.685Z,6.40
2023-09-25T07:49:41.526Z,9.25
2023-09-25T07:52:21.177Z,6.65
2023-09-25T07:55:01.963Z,7.45
2023-09-25T07:57:29.015Z,8.55
2023-09-25T07:59:56.425Z,8.55
2023-09-25T08:02:23.389Z,10.23
2023-09-25T08:04:50.956Z,7.13
2023-09-25T08:07:20.082Z,5.47
2023-09-25T08:09:47.908Z,6.50
2023-09-25T08:12:15.048Z,8.35
2023-09-25T08:14:42.099Z,4.00
2023-09-25T08:17:15.906Z,4.28
2023-09-25T08:19:42.830Z,5.53
2023-09-25T08:22:11.507Z,5.35
2023-09-25T08:24:38.680Z,7.40
2023-09-25T08:27:06.055Z,6.35
2023-09-25T08:29:32.991Z,7.82
2023-09-25T08:32:12.053Z,4.35
2023-09-25T08:34:39.068Z,7.40
2023-09-25T08:37:07.405Z,5.22
2023-09-25T08:39:35.540Z,5.13
2023-09-25T08:42:02.744Z,5.97
2023-09-25T08:44:30.467Z,5.70
2023-09-25T08:46:57.729Z,5.10
2023-09-25T08:49:25.305Z,10.68
2023-09-25T08:51:54.556Z,7.75
2023-09-25T08:54:21.544Z,6.43
2023-09-25T08:56:48.811Z,8.40
2023-09-25T08:59:16.689Z,5.88
2023-09-25T09:01:44.953Z,5.22
2023-09-25T09:04:12.154Z,6.22
2023-09-25T09:06:39.188Z,7.03
2023-09-25T09:09:08.954Z,5.93
2023-09-25T09:11:37.086Z,7.22
2023-09-25T09:14:04.117Z,4.28
2023-09-25T09:16:31.080Z,5.03
2023-09-25T09:19:10.769Z,5.80
2023-09-25T09:21:37.862Z,6.10
2023-09-25T09:24:05.589Z,6.28
2023-09-25T09:26:34.872Z,7.13
2023-09-25T09:29:01.789Z,5.05
2023-09-25T09:31:28.717Z,6.65
2023-09-25T09:33:56.814Z,5.85
2023-09-25T09:36:24.834Z,6.05
2023-09-25T09:38:54.644Z,5.90
2023-09-25T09:41:22.871Z,4.32
2023-09-25T09:43:50.222Z,7.05
2023-09-25T09:46:17.841Z,4.22
2023-09-25T09:48:48.073Z,8.88
2023-09-25T09:51:18.896Z,3.90
2023-09-25T09:53:47.135Z,6.43
2023-09-25T09:56:16.351Z,8.95
2023-09-25T09:58:44.203Z,6.63
2023-09-25T10:01:11.327Z,6.30
2023-09-25T10:03:38.770Z,8.43
2023-09-25T10:06:06.588Z,8.23
2023-09-25T10:08:33.513Z,7.45
2023-09-25T10:11:24.655Z,6.32
2023-09-25T10:13:56.441Z,5.97
2023-09-25T10:16:24.040Z,11.40
2023-09-25T10:18:53.632Z,6.40
2023-09-25T10:21:20.629Z,5.70
2023-09-25T10:23:50.031Z,6.78
2023-09-25T10:26:22.977Z,4.47
2023-09-25T10:29:16.746Z,7.55
2023-09-25T10:31:49.917Z,6.28
2023-09-25T10:34:17.868Z,7.05
2023-09-25T10:36:51.615Z,6.30
2023-09-25T10:39:19.738Z,5.57
2023-09-25T10:41:57.852Z,5.15
2023-09-25T10:44:26.554Z,5.20
2023-09-25T10:46:53.630Z,10.13
2023-09-25T10:49:20.558Z,8.88
2023-09-25T10:51:48.513Z,8.32
2023-09-25T10:54:16.145Z,6.32
2023-09-25T10:56:43.203Z,6.70
2023-09-25T10:59:11.639Z,8.93
2023-09-25T11:01:38.966Z,7.28
2023-09-25T11:04:06.246Z,8.60
2023-09-25T11:06:33.731Z,7.95
2023-09-25T11:09:08.199Z,5.28
2023-09-25T11:11:35.423Z,6.20
2023-09-25T11:14:02.698Z,5.68
2023-09-25T11:16:30.210Z,6.07
2023-09-25T11:19:11.919Z,7.43
2023-09-25T11:21:40.975Z,6.00
2023-09-25T11:24:11.585Z,7.32
2023-09-25T11:26:44.796Z,5.35
2023-09-25T11:29:13.350Z,6.30
2023-09-25T11:34:12.209Z,4.97
2023-09-25T11:36:46.296Z,6.35
2023-09-25T11:39:17.038Z,6.43
2023-09-25T11:41:44.796Z,6.70
2023-09-25T11:44:11.729Z,5.90
2023-09-25T11:46:38.881Z,5.78
2023-09-25T11:49:06.086Z,8.38
2023-09-25T11:51:34.990Z,9.95
2023-09-25T11:54:04.958Z,6.30
2023-09-25T11:56:33.013Z,9.93
2023-09-25T11:59:01.540Z,8.02
2023-09-25T12:01:29.611Z,9.32
2023-09-25T12:03:57.394Z,5.55
2023-09-25T12:06:25.795Z,5.65
2023-09-25T12:08:53.038Z,7.57
2023-09-25T12:11:20.088Z,8.77
2023-09-25T12:13:47.173Z,10.23
2023-09-25T12:16:14.454Z,4.47
2023-09-25T12:18:42.229Z,7.60
2023-09-25T12:21:10.436Z,5.65
2023-09-25T12:23:37.523Z,8.57
2023-09-25T12:26:05.324Z,7.15
2023-09-25T12:28:33.536Z,8.15
2023-09-25T12:33:40.635Z,8.43
2023-09-25T12:36:07.696Z,5.28
2023-09-25T12:38:34.657Z,5.40
2023-09-25T12:41:01.679Z,5.40
2023-09-25T12:43:28.604Z,7.28
2023-09-25T12:45:55.639Z,7.07
2023-09-25T12:48:25.278Z,7.20
2023-09-25T12:50:52.964Z,6.60
2023-09-25T12:53:20.343Z,7.22
2023-09-25T12:55:47.392Z,10.77
2023-09-25T12:58:14.485Z,8.10
2023-09-25T13:00:41.462Z,8.07
2023-09-25T13:03:09.682Z,7.00
2023-09-25T13:05:36.889Z,8.27
2023-09-25T13:08:04.226Z,8.35
2023-09-25T13:10:31.308Z,8.20
2023-09-25T13:12:58.659Z,8.23
2023-09-25T13:15:25.765Z,5.85
2023-09-25T13:17:53.841Z,5.55
2023-09-25T13:20:21.505Z,5.47
2023-09-25T13:22:48.856Z,5.82
2023-09-25T13:25:15.971Z,5.53
2023-09-25T13:27:49.922Z,6.35
2023-09-25T13:30:20.009Z,4.25
2023-09-25T13:32:47.622Z,7.43
2023-09-25T13:35:14.982Z,4.38
2023-09-25T13:37:42.155Z,6.38
2023-09-25T13:40:12.193Z,4.93
2023-09-25T13:42:39.577Z,5.82
2023-09-25T13:45:07.862Z,5.53
2023-09-25T13:47:34.897Z,7.28
2023-09-25T13:50:02.750Z,5.32
2023-09-25T13:52:29.852Z,6.93
2023-09-25T13:54:58.237Z,7.90
2023-09-25T13:57:25.618Z,7.13
2023-09-25T13:59:52.836Z,7.63
2023-09-25T14:02:19.842Z,5.72
2023-09-25T14:04:46.963Z,8.75
2023-09-25T14:07:14.006Z,8.20
2023-09-25T14:09:41.676Z,5.88
2023-09-25T14:12:08.834Z,6.22
2023-09-25T14:14:49.018Z,6.30
2023-09-25T14:17:16.000Z,7.10
2023-09-25T14:19:42.912Z,8.40
2023-09-25T14:22:09.875Z,6.07
2023-09-25T14:24:36.862Z,5.45
2023-09-25T14:27:03.994Z,6.03
2023-09-25T14:29:32.492Z,5.32
2023-09-25T14:31:59.921Z,5.10
2023-09-25T14:34:26.972Z,5.70
2023-09-25T14:36:54.100Z,6.07
2023-09-25T14:39:25.840Z,6.40
2023-09-25T14:41:53.084Z,5.18
2023-09-25T14:44:20.035Z,5.82
2023-09-25T14:46:46.986Z,7.65
2023-09-25T14:51:48.763Z,5.82
2023-09-25T14:54:15.754Z,6.38
2023-09-25T14:56:42.697Z,6.50
2023-09-25T14:59:09.628Z,7.70
2023-09-25T15:01:36.600Z,5.40
2023-09-25T15:04:04.725Z,7.15
2023-09-25T15:06:32.092Z,8.88
2023-09-25T15:08:59.089Z,5.07
2023-09-25T15:11:26.042Z,6.75
2023-09-25T15:13:53.032Z,10.50
2023-09-25T15:16:20.080Z,5.03
2023-09-25T15:18:47.096Z,6.25
2023-09-25T15:21:14.134Z,5.85
2023-09-25T15:23:41.697Z,5.63
2023-09-25T15:26:08.632Z,8.88
2023-09-25T15:28:35.593Z,5.75
2023-09-25T15:31:02.499Z,7.93
2023-09-25T15:33:29.558Z,5.47
2023-09-25T15:35:56.609Z,5.88
2023-09-25T15:38:23.975Z,6.88
2023-09-25T15:40:51.419Z,6.05
2023-09-25T15:43:18.442Z,5.63
2023-09-25T15:45:46.373Z,5.65
2023-09-25T15:48:13.479Z,8.10
2023-09-25T15:50:40.632Z,7.63
2023-09-25T15:53:07.667Z,5.70
2023-09-25T15:55:41.310Z,6.18
2023-09-25T15:58:10.750Z,9.20
2023-09-25T16:00:37.854Z,13.57
2023-09-25T16:03:05.264Z,10.82
2023-09-25T16:05:32.250Z,11.75
2023-09-25T16:07:59.162Z,9.27
2023-09-25T16:10:26.288Z,19.40
2023-09-25T16:12:53.369Z,9.25
2023-09-25T16:15:20.291Z,9.90
2023-09-25T16:17:47.397Z,9.07
2023-09-25T16:20:14.319Z,12.38
2023-09-25T16:22:41.317Z,17.02
2023-09-25T16:25:08.652Z,12.68
2023-09-25T16:27:35.911Z,14.80
2023-09-25T16:30:03.770Z,15.05
2023-09-25T16:32:30.769Z,10.20
2023-09-25T16:34:57.665Z,8.45
2023-09-25T16:37:24.545Z,11.93
2023-09-25T16:39:51.513Z,15.40
2023-09-25T16:42:18.433Z,9.85
2023-09-25T16:44:45.363Z,13.07
2023-09-25T16:47:12.325Z,10.02
2023-09-25T16:49:39.251Z,13.80
2023-09-25T16:52:06.225Z,13.23
2023-09-25T16:54:34.464Z,11.38
2023-09-25T16:57:01.549Z,12.82
2023-09-25T16:59:28.516Z,10.30
2023-09-25T17:01:55.472Z,10.35
2023-09-25T17:04:22.616Z,9.55
2023-09-25T17:06:49.679Z,19.02
2023-09-25T17:09:16.681Z,17.15
2023-09-25T17:11:44.330Z,15.73
2023-09-25T17:14:12.114Z,12.05
2023-09-25T17:16:39.262Z,16.33
2023-09-25T17:19:06.521Z,13.15
2023-09-25T17:21:33.563Z,14.50
2023-09-25T17:24:00.676Z,12.65
2023-09-25T17:26:28.434Z,14.93
2023-09-25T17:28:56.036Z,12.80
2023-09-25T17:31:24.072Z,12.18
2023-09-25T17:33:51.515Z,12.38
2023-09-25T17:36:18.808Z,12.80
2023-09-25T17:38:45.985Z,12.77
2023-09-25T17:41:13.082Z,12.88
2023-09-25T17:43:40.241Z,12.45
2023-09-25T17:46:09.222Z,14.57
2023-09-25T17:48:40.800Z,11.73
2023-09-25T17:51:08.032Z,11.65
2023-09-25T17:53:35.308Z,10.15
2023-09-25T17:56:02.376Z,10.75
2023-09-25T17:58:31.483Z,11.23
2023-09-25T18:01:02.289Z,11.95
2023-09-25T18:03:30.288Z,16.42
2023-09-25T18:05:57.572Z,16.55
2023-09-25T18:08:25.221Z,10.95
2023-09-25T18:10:52.277Z,11.40
2023-09-25T18:13:22.441Z,11.93
2023-09-25T18:15:50.824Z,15.23
2023-09-25T18:18:18.154Z,10.90
2023-09-25T18:20:45.381Z,9.35
2023-09-25T18:23:12.475Z,11.88
2023-09-25T18:25:42.236Z,18.00
2023-09-25T18:28:09.491Z,8.20
2023-09-25T18:30:37.321Z,17.83
2023-09-25T18:33:09.983Z,9.95
2023-09-25T18:35:38.014Z,9.35
2023-09-25T18:38:05.218Z,12.35
2023-09-25T18:40:35.630Z,16.25
2023-09-25T18:43:04.423Z,7.93
2023-09-25T18:45:31.892Z,13.73
2023-09-25T18:47:59.129Z,14.43
2023-09-25T18:50:26.245Z,11.70
2023-09-25T18:52:53.285Z,13.93
2023-09-25T18:55:20.277Z,15.05
2023-09-25T18:57:47.433Z,14.02
2023-09-25T19:00:14.661Z,11.45
2023-09-25T19:02:42.426Z,11.60
2023-09-25T19:05:09.682Z,9.32
2023-09-25T19:07:36.662Z,12.63
2023-09-25T19:10:04.870Z,13.70
2023-09-25T19:12:31.973Z,12.80
2023-09-25T19:14:58.921Z,13.48
2023-09-25T19:17:26.310Z,11.85
2023-09-25T19:19:53.391Z,13.55
2023-09-25T19:22:20.519Z,12.07
2023-09-25T19:24:47.531Z,11.00
2023-09-25T19:27:14.770Z,13.82
2023-09-25T19:29:41.966Z,11.15
2023-09-25T19:32:09.066Z,13.23
2023-09-25T19:34:36.233Z,15.50
2023-09-25T19:37:03.522Z,12.75
2023-09-25T19:39:31.200Z,14.20
2023-09-25T19:41:58.217Z,14.02
2023-09-25T19:44:25.210Z,18.08
2023-09-25T19:46:52.385Z,10.82
2023-09-25T19:49:33.414Z,11.07
2023-09-25T19:52:00.363Z,10.60
2023-09-25T19:54:27.377Z,11.68
2023-09-25T19:56:54.317Z,11.95
2023-09-25T19:59:21.290Z,12.98
2023-09-25T20:01:48.293Z,11.48
2023-09-25T20:04:15.354Z,11.50
2023-09-25T20:06:42.418Z,9.52
2023-09-25T20:09:09.491Z,11.35
2023-09-25T20:11:36.459Z,13.93
2023-09-25T20:14:03.612Z,13.80
2023-09-25T20:16:30.667Z,12.63
2023-09-25T20:18:57.805Z,6.85
2023-09-25T20:21:27.107Z,9.38
2023-09-25T20:23:54.374Z,10.25
2023-09-25T20:26:21.452Z,9.60
2023-09-25T20:28:48.481Z,8.95
2023-09-25T20:31:15.552Z,10.70
2023-09-25T20:33:42.690Z,9.38
2023-09-25T20:36:09.935Z,19.02
2023-09-25T20:38:37.053Z,25.50
2023-09-25T20:41:04.078Z,44.92
2023-09-25T20:43:32.134Z,32.72
2023-09-25T20:45:59.397Z,33.72
2023-09-25T20:48:26.378Z,26.00
2023-09-25T20:50:53.455Z,12.13
2023-09-25T20:53:20.395Z,11.52
2023-09-25T20:55:48.972Z,11.13
2023-09-25T20:58:16.033Z,14.25
2023-09-25T21:00:43.339Z,10.60
2023-09-25T21:03:10.369Z,8.60
2023-09-25T21:05:37.390Z,9.82
2023-09-25T21:08:04.894Z,8.25
2023-09-25T21:10:32.202Z,9.18
2023-09-25T21:12:59.230Z,12.27
2023-09-25T21:15:26.238Z,8.43
2023-09-25T21:17:53.184Z,15.20
2023-09-25T21:20:20.163Z,12.95
2023-09-25T21:22:47.074Z,15.25
2023-09-25T21:25:13.987Z,10.40
2023-09-25T21:27:40.979Z,12.48
2023-09-25T21:30:08.592Z,10.80
2023-09-25T21:32:36.890Z,12.40
2023-09-25T21:35:04.375Z,12.23
2023-09-25T21:37:31.450Z,11.35
2023-09-25T21:39:58.400Z,10.75
2023-09-25T21:42:25.415Z,13.13
2023-09-25T21:44:52.674Z,13.52
2023-09-25T21:47:21.191Z,11.77
2023-09-25T21:49:48.190Z,13.27
2023-09-25T21:52:15.211Z,16.45
2023-09-25T21:54:42.752Z,12.63
2023-09-25T21:57:09.753Z,14.35
2023-09-25T21:59:36.738Z,10.68
2023-09-25T22:02:05.149Z,11.88
2023-09-25T22:04:32.096Z,14.55
2023-09-25T22:07:00.684Z,9.38
2023-09-25T22:09:27.787Z,12.27
2023-09-25T22:11:56.122Z,12.45
2023-09-25T22:14:23.210Z,11.15
2023-09-25T22:16:50.322Z,13.57
2023-09-25T22:19:17.499Z,9.40
2023-09-25T22:21:45.797Z,8.32
2023-09-25T22:24:12.998Z,11.75
2023-09-25T22:26:39.963Z,13.05
2023-09-25T22:29:06.906Z,10.85
2023-09-25T22:31:34.004Z,8.50
2023-09-25T22:34:01.306Z,12.15
2023-09-25T22:36:28.265Z,10.52
2023-09-25T22:38:55.309Z,10.93
2023-09-25T22:41:23.266Z,12.70
2023-09-25T22:43:50.603Z,10.07
2023-09-25T22:46:17.765Z,10.15
2023-09-25T22:48:44.875Z,13.10
2023-09-25T22:51:12.290Z,12.70
2023-09-25T22:53:39.190Z,8.90
2023-09-25T22:56:07.502Z,7.82
2023-09-25T22:58:34.626Z,8.90
2023-09-25T23:01:04.999Z,10.38
2023-09-25T23:03:32.238Z,11.43
2023-09-25T23:05:59.376Z,12.23
2023-09-25T23:08:26.282Z,13.05
2023-09-25T23:10:54.072Z,15.18
2023-09-25T23:13:21.058Z,10.65
2023-09-25T23:15:48.096Z,20.23
2023-09-25T23:18:15.232Z,16.08
2023-09-25T23:20:42.225Z,14.02
2023-09-25T23:23:09.224Z,10.63
2023-09-25T23:25:36.220Z,12.55
2023-09-25T23:28:04.517Z,10.80
2023-09-25T23:30:31.503Z,11.18
2023-09-25T23:32:58.602Z,9.60
2023-09-25T23:35:26.306Z,9.07
2023-09-25T23:37:53.224Z,7.88
2023-09-25T23:40:23.268Z,20.67
2023-09-25T23:42:51.101Z,11.88
2023-09-25T23:45:19.226Z,9.93
2023-09-25T23:47:48.055Z,13.40
2023-09-25T23:50:16.624Z,8.70
2023-09-25T23:52:45.920Z,12.70
2023-09-25T23:55:13.602Z,9.57
2023-09-25T23:57:41.502Z,9.85
